Time;durP1;ratioP1;P1;durP2;ratioP2;P2;SDS_P1;SDS_P2;PMS_P1;PMS_P2;Temp;Humidity;BMP_temperature;BMP_pressure;BME280_temperature;BME280_humidity;BME280_pressure;Samples;Min_cycle;Max_cycle;Signal;HPM_P1;HPM_P2
2024/04/13 00:01:27;;;;;;;7.63;4.88;;;;;;;13.34;100.00;101639.50;7392649;19;20030;-80
2024/04/13 00:03:53;;;;;;;9.85;5.43;;;;;;;13.43;100.00;101672.84;7389391;19;20022;-81
2024/04/13 00:06:19;;;;;;;6.63;4.82;;;;;;;13.14;100.00;101593.25;7393881;19;20007;-81
2024/04/13 00:08:44;;;;;;;6.10;4.32;;;;;;;13.28;100.00;101612.25;7382472;19;20011;-78
2024/04/13 00:11:10;;;;;;;10.82;5.00;;;;;;;13.39;100.00;101643.75;7371951;19;20037;-82
2024/04/13 00:13:36;;;;;;;7.70;4.97;;;;;;;13.36;100.00;101631.47;7387374;19;20090;-81
2024/04/13 00:16:03;;;;;;;7.53;5.07;;;;;;;13.44;100.00;101650.63;7391052;19;20017;-81
2024/04/13 00:18:32;;;;;;;8.25;5.10;;;;;;;13.44;100.00;101658.63;7392766;19;20010;-79
2024/04/13 00:20:58;;;;;;;7.22;4.68;;;;;;;13.34;100.00;101646.59;7389368;19;20010;-80
2024/04/13 00:23:24;;;;;;;8.02;4.97;;;;;;;13.43;100.00;101658.69;7386430;19;20019;-80
2024/04/13 00:25:54;;;;;;;8.25;5.60;;;;;;;12.84;100.00;101561.59;7392027;19;20010;-81
2024/04/13 00:28:19;;;;;;;6.82;5.22;;;;;;;13.17;100.00;101615.34;7392149;19;20039;-80
2024/04/13 00:30:46;;;;;;;8.10;5.22;;;;;;;13.18;100.00;101618.84;7391051;19;20011;-80
2024/04/13 00:33:14;;;;;;;9.23;4.80;;;;;;;13.36;100.00;101649.22;7399767;19;20020;-80
2024/04/13 00:35:40;;;;;;;7.65;4.82;;;;;;;13.06;100.00;101604.22;7399386;19;20014;-80
2024/04/13 00:38:06;;;;;;;6.25;4.47;;;;;;;13.01;100.00;101600.84;7398038;19;20411;-78
2024/04/13 00:40:32;;;;;;;9.63;4.60;;;;;;;12.92;100.00;101582.56;7403992;19;20007;-79
2024/04/13 00:43:08;;;;;;;5.80;4.13;;;;;;;13.32;100.00;101649.31;7393313;19;20570;-79
2024/04/13 00:45:44;;;;;;;10.82;4.93;;;;;;;12.89;100.00;101580.91;7395282;19;20011;-81
2024/04/13 00:48:11;;;;;;;9.75;4.95;;;;;;;13.19;100.00;101624.13;7377839;19;20022;-82
2024/04/13 00:50:46;;;;;;;9.27;5.07;;;;;;;13.28;100.00;101653.03;7395800;19;20014;-79
2024/04/13 00:53:15;;;;;;;8.27;5.63;;;;;;;12.91;100.00;101587.03;7397173;19;20025;-79
2024/04/13 00:55:43;;;;;;;8.68;5.72;;;;;;;13.21;100.00;101632.91;7397077;19;20420;-81
2024/04/13 00:58:11;;;;;;;8.02;5.13;;;;;;;13.08;100.00;101609.44;7399040;19;20494;-81
2024/04/13 01:00:38;;;;;;;12.90;5.13;;;;;;;13.35;100.00;101651.00;7397736;19;20014;-84
2024/04/13 01:03:04;;;;;;;7.22;4.72;;;;;;;13.31;100.00;101649.38;7397380;19;20002;-82
2024/04/13 01:05:31;;;;;;;8.48;5.28;;;;;;;13.32;100.00;101651.97;7396057;19;20034;-81
2024/04/13 01:07:57;;;;;;;8.77;5.68;;;;;;;13.29;100.00;101645.91;7393659;19;20036;-79
2024/04/13 01:10:23;;;;;;;7.22;4.70;;;;;;;13.23;100.00;101630.16;7392872;19;20034;-80
2024/04/13 01:12:50;;;;;;;6.40;4.90;;;;;;;13.05;100.00;101598.94;7394168;19;20010;-79
2024/04/13 01:15:17;;;;;;;6.10;4.43;;;;;;;13.34;100.00;101649.28;7395555;19;20010;-81
2024/04/13 01:17:43;;;;;;;7.15;4.65;;;;;;;12.36;100.00;101481.94;7395258;19;20458;-79
2024/04/13 01:20:12;;;;;;;7.85;5.00;;;;;;;13.31;100.00;101636.94;7371116;19;20002;-82
2024/04/13 01:22:43;;;;;;;6.95;4.68;;;;;;;13.39;100.00;101641.94;7390524;19;20035;-81
2024/04/13 01:25:13;;;;;;;;;;;;;;;13.40;100.00;101637.50;7386896;19;20011;-83
2024/04/13 01:27:42;;;;;;;10.25;5.30;;;;;;;13.41;100.00;101642.75;7394114;19;20611;-79
2024/04/13 01:30:14;;;;;;;6.38;5.28;;;;;;;12.97;100.00;101569.97;7395329;19;20017;-80
2024/04/13 01:32:41;;;;;;;9.02;5.35;;;;;;;13.29;100.00;101616.66;7391790;19;20471;-81
2024/04/13 01:35:12;;;;;;;5.53;4.90;;;;;;;13.25;100.00;101617.69;7392245;19;20014;-79
2024/04/13 01:37:40;;;;;;;7.10;5.13;;;;;;;13.34;100.00;101635.97;7391942;19;20007;-83
2024/04/13 01:40:08;;;;;;;6.57;4.65;;;;;;;13.27;100.00;101632.66;7396637;19;20014;-81
2024/04/13 01:42:41;;;;;;;7.10;5.13;;;;;;;13.36;100.00;101639.44;7387516;19;20692;-80
2024/04/13 01:45:07;;;;;;;8.35;5.10;;;;;;;13.36;100.00;101635.91;7391823;19;20010;-81
2024/04/13 01:47:33;;;;;;;7.47;5.18;;;;;;;13.17;100.00;101609.16;7395960;19;20015;-79
2024/04/13 01:49:58;;;;;;;7.25;5.28;;;;;;;13.30;100.00;101634.34;7392533;19;20102;-80
2024/04/13 01:52:24;;;;;;;8.63;5.70;;;;;;;13.26;100.00;101614.09;7394029;19;20044;-81
2024/04/13 01:54:51;;;;;;;8.05;5.53;;;;;;;13.33;100.00;101624.47;7390948;19;20018;-80
2024/04/13 01:57:18;;;;;;;8.15;5.43;;;;;;;13.33;100.00;101628.91;7394681;19;20010;-80
2024/04/13 01:59:44;;;;;;;8.18;5.72;;;;;;;13.02;100.00;101578.66;7395595;19;20132;-81
2024/04/13 02:02:11;;;;;;;6.78;5.60;;;;;;;13.28;100.00;101617.56;7392346;19;20025;-82
2024/04/13 02:04:36;;;;;;;7.18;5.80;;;;;;;13.06;100.00;101592.72;7387453;19;20014;-81
2024/04/13 02:07:04;;;;;;;10.35;6.75;;;;;;;13.11;100.00;101604.00;7396365;19;20006;-81
2024/04/13 02:09:33;;;;;;;7.47;5.50;;;;;;;13.04;100.00;101602.53;7375892;19;20050;-80
2024/04/13 02:12:01;;;;;;;9.57;6.72;;;;;;;13.25;100.00;101650.47;7391379;19;20010;-82
2024/04/13 02:14:26;;;;;;;9.82;6.43;;;;;;;13.05;100.00;101617.56;7390071;19;20018;-82
2024/04/13 02:16:52;;;;;;;8.77;6.63;;;;;;;13.20;100.00;101643.63;7395132;19;20011;-79
2024/04/13 02:19:18;;;;;;;9.23;6.28;;;;;;;12.79;100.00;101581.28;7395608;19;20022;-81
2024/04/13 02:21:44;;;;;;;11.75;6.22;;;;;;;13.06;100.00;101629.94;7393243;19;20003;-80
2024/04/13 02:24:10;;;;;;;9.43;6.55;;;;;;;13.11;100.00;101635.94;7388948;19;20007;-80
2024/04/13 02:26:35;;;;;;;13.32;6.82;;;;;;;12.78;100.00;101596.38;7393469;19;20022;-78
2024/04/13 02:29:01;;;;;;;9.00;6.35;;;;;;;12.95;100.00;101639.16;7393390;19;20018;-80
2024/04/13 02:31:27;;;;;;;9.43;6.00;;;;;;;12.84;100.00;101635.16;7399745;19;20021;-80
2024/04/13 02:33:53;;;;;;;7.47;5.38;;;;;;;12.68;100.00;101639.31;7397999;19;20006;-78
2024/04/13 02:36:19;;;;;;;9.80;5.50;;;;;;;12.22;100.00;101564.78;7394752;19;20364;-79
2024/04/13 02:38:48;;;;;;;8.80;6.00;;;;;;;12.41;100.00;101607.50;7393771;19;20009;-81
2024/04/13 02:41:14;;;;;;;7.97;5.65;;;;;;;12.39;100.00;101617.31;7390805;19;20014;-80
2024/04/13 02:43:39;;;;;;;8.93;6.07;;;;;;;12.31;100.00;101616.69;7391797;19;20484;-80
2024/04/13 02:46:08;;;;;;;9.18;6.05;;;;;;;11.94;100.00;101564.88;7391641;19;20150;-80
2024/04/13 02:48:35;;;;;;;11.13;5.57;;;;;;;11.79;100.00;101569.81;7394787;19;20025;-81
2024/04/13 02:51:00;;;;;;;13.85;6.57;;;;;;;12.04;100.00;101610.53;7391014;19;20011;-80
2024/04/13 02:53:26;;;;;;;8.55;6.32;;;;;;;11.55;100.00;101531.66;7391454;19;20039;-79
2024/04/13 02:55:51;;;;;;;9.45;6.13;;;;;;;11.97;100.00;101616.97;7388390;19;20063;-80
2024/04/13 02:58:17;;;;;;;8.40;6.25;;;;;;;11.49;100.00;101538.00;7391458;19;20547;-78
2024/04/13 03:00:57;;;;;;;7.22;5.60;;;;;;;11.92;100.00;101619.78;7390469;19;20028;-80
2024/04/13 03:03:23;;;;;;;11.13;6.40;;;;;;;11.65;100.00;101578.16;7389804;19;20010;-79
2024/04/13 03:06:09;;;;;;;10.52;6.70;;;;;;;11.80;100.00;101614.03;7408087;19;20006;-78
2024/04/13 03:08:38;;;;;;;7.35;6.00;;;;;;;11.70;100.00;101607.22;7396464;19;20607;-78
2024/04/13 03:11:04;;;;;;;12.63;6.30;;;;;;;11.66;100.00;101611.75;7414972;19;20006;-81
2024/04/13 03:13:30;;;;;;;7.38;6.00;;;;;;;11.50;100.00;101599.88;7408808;19;20010;-79
2024/04/13 03:15:57;;;;;;;7.05;5.93;;;;;;;11.60;100.00;101627.88;7402142;19;20014;-79
2024/04/13 03:18:26;;;;;;;8.63;6.47;;;;;;;11.37;100.00;101604.72;7406889;19;20029;-80
2024/04/13 03:20:52;;;;;;;10.38;6.10;;;;;;;11.00;100.00;101553.75;7399750;19;20901;-82
2024/04/13 03:23:18;;;;;;;7.68;5.90;;;;;;;11.30;100.00;101613.78;7395842;19;20046;-82
2024/04/13 03:25:44;;;;;;;10.30;6.45;;;;;;;11.17;100.00;101601.84;7378593;19;20010;-81
2024/04/13 03:28:10;;;;;;;9.52;6.13;;;;;;;11.14;100.00;101594.84;7389808;19;20019;-80
2024/04/13 03:30:36;;;;;;;8.38;6.32;;;;;;;11.36;100.00;101626.84;7389981;19;20042;-81
2024/04/13 03:33:05;;;;;;;9.48;6.10;;;;;;;10.92;100.00;101550.44;7392073;19;20693;-81
2024/04/13 03:35:39;;;;;;;9.32;6.80;;;;;;;10.50;100.00;101482.81;7388020;19;20015;-81
2024/04/13 03:38:06;;;;;;;11.07;7.03;;;;;;;10.87;100.00;101561.19;7391172;19;20030;-80
2024/04/13 03:40:34;;;;;;;10.35;6.60;;;;;;;11.09;100.00;101594.09;7390349;19;20009;-83
2024/04/13 03:43:00;;;;;;;8.88;7.05;;;;;;;11.03;100.00;101577.50;7391324;19;20034;-80
2024/04/13 03:45:26;;;;;;;10.15;6.80;;;;;;;11.14;100.00;101588.66;7368986;19;20015;-81
2024/04/13 03:47:54;;;;;;;12.45;6.78;;;;;;;10.88;100.00;101550.53;7400724;19;20021;-80
2024/04/13 03:50:19;;;;;;;10.88;7.00;;;;;;;11.02;100.00;101581.09;7400173;19;20360;-81
2024/04/13 03:52:46;;;;;;;10.70;6.90;;;;;;;10.64;100.00;101508.88;7392251;19;20002;-79
2024/04/13 03:55:12;;;;;;;10.70;6.75;;;;;;;11.19;100.00;101614.09;7385653;19;20475;-83
2024/04/13 03:57:37;;;;;;;9.70;6.57;;;;;;;11.07;100.00;101590.63;7390553;19;20014;-81
2024/04/13 04:00:06;;;;;;;7.50;5.90;;;;;;;11.19;100.00;101607.94;7392292;19;20014;-79
2024/04/13 04:02:33;;;;;;;10.75;6.50;;;;;;;10.90;100.00;101555.78;7390259;19;20018;-80
2024/04/13 04:04:59;;;;;;;10.88;6.53;;;;;;;10.97;100.00;101572.38;7384707;19;20061;-79
2024/04/13 04:07:24;;;;;;;8.18;6.18;;;;;;;10.90;100.00;101564.59;7395888;19;20015;-79
2024/04/13 04:09:50;;;;;;;19.58;6.65;;;;;;;10.84;100.00;101562.16;7398109;19;20006;-79
2024/04/13 04:12:16;;;;;;;8.98;5.95;;;;;;;10.65;100.00;101531.81;7397502;19;20038;-82
2024/04/13 04:14:41;;;;;;;9.07;6.00;;;;;;;10.96;100.00;101584.78;7393953;19;20010;-78
2024/04/13 04:17:08;;;;;;;9.88;6.70;;;;;;;10.72;100.00;101546.59;7399937;19;20142;-79
2024/04/13 04:19:34;;;;;;;7.97;6.03;;;;;;;10.69;100.00;101551.16;7399425;19;20015;-78
2024/04/13 04:22:00;;;;;;;8.95;6.18;;;;;;;10.54;100.00;101524.19;7396107;19;20021;-81
2024/04/13 04:24:27;;;;;;;8.02;6.40;;;;;;;10.83;100.00;101581.63;7393929;19;20011;-77
2024/04/13 04:26:54;;;;;;;9.25;6.65;;;;;;;10.88;100.00;101592.06;7397515;19;20492;-80
2024/04/13 04:29:19;;;;;;;9.15;6.50;;;;;;;10.89;100.00;101586.72;7398210;19;20015;-79
2024/04/13 04:31:45;;;;;;;7.65;5.95;;;;;;;10.60;100.00;101530.19;7396266;19;20121;-80
2024/04/13 04:34:10;;;;;;;9.05;6.25;;;;;;;11.03;100.00;101604.00;7395589;19;20015;-80
2024/04/13 04:36:36;;;;;;;8.48;6.90;;;;;;;10.70;100.00;101552.88;7396605;19;20022;-82
2024/04/13 04:39:02;;;;;;;11.57;6.78;;;;;;;10.71;100.00;101578.44;7399596;19;20174;-80
2024/04/13 04:41:27;;;;;;;9.32;6.63;;;;;;;10.69;100.00;101572.34;7398647;19;20078;-81
2024/04/13 04:43:54;;;;;;;10.10;6.30;;;;;;;10.31;100.00;101509.84;7391790;19;20377;-80
2024/04/13 04:46:21;;;;;;;8.25;6.30;;;;;;;10.85;100.00;101608.94;7395349;19;20018;-80
2024/04/13 04:48:48;;;;;;;10.20;6.55;;;;;;;10.94;100.00;101612.22;7400929;19;20029;-80
2024/04/13 04:51:13;;;;;;;12.85;6.53;;;;;;;10.93;100.00;101602.53;7400220;19;20010;-80
2024/04/13 04:53:39;;;;;;;11.57;6.38;;;;;;;10.85;100.00;101600.13;7404919;19;20026;-79
2024/04/13 04:56:05;;;;;;;9.75;6.10;;;;;;;10.68;100.00;101574.13;7393646;19;20015;-80
2024/04/13 04:58:30;;;;;;;7.00;6.00;;;;;;;10.83;100.00;101581.63;7394517;19;20832;-83
2024/04/13 05:00:57;;;;;;;9.90;6.78;;;;;;;11.02;100.00;101615.53;7394310;19;20014;-81
2024/04/13 05:03:24;;;;;;;9.60;6.82;;;;;;;10.65;100.00;101554.78;7398490;19;20019;-78
2024/04/13 05:05:51;;;;;;;11.30;6.65;;;;;;;10.94;100.00;101614.88;7389858;19;20018;-80
2024/04/13 05:08:17;;;;;;;9.65;6.20;;;;;;;10.87;100.00;101606.22;7394085;19;20633;-79
2024/04/13 05:10:43;;;;;;;8.07;5.55;;;;;;;10.44;100.00;101537.72;7394801;19;20046;-79
2024/04/13 05:13:08;;;;;;;8.55;5.95;;;;;;;10.74;100.00;101589.81;7394123;19;20019;-79
2024/04/13 05:15:35;;;;;;;7.82;6.18;;;;;;;9.46;100.00;101363.09;7393074;19;20030;-78
2024/04/13 05:18:03;;;;;;;17.27;8.80;;;;;;;11.02;100.00;101620.84;7390772;19;20013;-79
2024/04/13 05:20:31;;;;;;;10.27;6.72;;;;;;;11.00;100.00;101614.72;7392946;19;20022;-78
2024/04/13 05:22:58;;;;;;;10.50;6.53;;;;;;;10.79;100.00;101573.78;7396022;19;20029;-81
2024/04/13 05:25:24;;;;;;;8.98;6.22;;;;;;;11.23;100.00;101633.44;7390710;19;20013;-79
2024/04/13 05:27:50;;;;;;;8.73;5.93;;;;;;;11.20;100.00;101628.22;7394746;19;20006;-82
2024/04/13 05:30:15;;;;;;;11.85;6.57;;;;;;;11.27;100.00;101636.88;7395978;19;20022;-78
2024/04/13 05:32:41;;;;;;;9.95;6.97;;;;;;;11.30;100.00;101640.31;7394227;19;20879;-79
2024/04/13 05:35:07;;;;;;;9.13;6.93;;;;;;;11.29;100.00;101635.06;7391777;19;20011;-81
2024/04/13 05:37:33;;;;;;;10.32;6.70;;;;;;;11.27;100.00;101616.53;7393311;19;20010;-80
2024/04/13 05:40:04;;;;;;;13.07;7.20;;;;;;;11.30;100.00;101619.09;7394714;19;20021;-80
2024/04/13 05:42:30;;;;;;;11.27;7.10;;;;;;;11.40;100.00;101635.59;7393409;19;20011;-79
2024/04/13 05:44:58;;;;;;;9.10;7.05;;;;;;;11.30;100.00;101613.78;7389783;19;20017;-80
2024/04/13 05:47:24;;;;;;;11.85;6.80;;;;;;;11.21;100.00;101592.84;7394528;19;20007;-78
2024/04/13 05:49:51;;;;;;;9.75;6.68;;;;;;;11.55;100.00;101649.25;7394418;19;20015;-80
2024/04/13 05:52:20;;;;;;;10.80;6.82;;;;;;;11.64;100.00;101652.53;7392695;19;20006;-79
2024/04/13 05:54:47;;;;;;;9.55;6.90;;;;;;;11.62;100.00;101638.44;7391805;19;20021;-78
2024/04/13 05:57:13;;;;;;;11.48;7.45;;;;;;;11.59;100.00;101616.41;7390985;19;20110;-80
2024/04/13 05:59:41;;;;;;;9.32;7.55;;;;;;;11.73;100.00;101621.25;7395268;19;20014;-77
2024/04/13 06:02:07;;;;;;;13.45;8.15;;;;;;;11.90;100.00;101629.59;7392910;19;20018;-79
2024/04/13 06:04:32;;;;;;;9.32;7.45;;;;;;;12.15;100.00;101664.13;7394692;19;20014;-80
2024/04/13 06:06:58;;;;;;;11.65;7.38;;;;;;;12.22;100.00;101662.16;7393888;19;20025;-78
2024/04/13 06:09:25;;;;;;;12.73;7.93;;;;;;;11.82;100.00;101580.31;7393938;19;20483;-78
2024/04/13 06:11:50;;;;;;;11.60;8.20;;;;;;;12.36;100.00;101661.69;7393025;19;20010;-79
2024/04/13 06:14:16;;;;;;;12.35;8.25;;;;;;;12.29;100.00;101635.31;7394560;19;20031;-79
2024/04/13 06:16:42;;;;;;;15.75;9.10;;;;;;;12.52;100.00;101657.59;7393626;19;19999;-82
2024/04/13 06:19:11;;;;;;;11.68;7.80;;;;;;;12.10;100.00;101575.81;7396139;19;20018;-81
2024/04/13 06:21:37;;;;;;;12.75;8.50;;;;;;;12.71;100.00;101649.84;7397655;19;20007;-81
2024/04/13 06:24:05;;;;;;;10.52;7.60;;;;;;;12.43;100.00;101580.88;7396545;19;20015;-80
2024/04/13 06:26:31;;;;;;;13.10;8.73;;;;;;;12.99;100.00;101647.91;7390829;19;20537;-79
2024/04/13 06:28:57;;;;;;;13.25;8.77;;;;;;;13.22;100.00;101652.41;7395308;19;20070;-80
2024/04/13 06:31:23;;;;;;;14.20;9.05;;;;;;;13.05;100.00;101583.88;7394123;19;20078;-79
2024/04/13 06:33:49;;;;;;;12.13;8.98;;;;;;;12.69;100.00;101492.22;7391583;19;20018;-79
2024/04/13 06:36:17;;;;;;;13.80;9.18;;;;;;;13.98;100.00;101662.69;7389200;19;20018;-80
2024/04/13 06:38:44;;;;;;;10.70;8.10;;;;;;;14.31;100.00;101663.94;7393754;19;20037;-81
2024/04/13 06:41:09;;;;;;;16.30;9.10;;;;;;;14.37;100.00;101641.47;7392254;19;20636;-81
2024/04/13 06:43:35;;;;;;;11.85;8.55;;;;;;;14.64;100.00;101644.78;7389519;19;20023;-80
2024/04/13 06:46:00;;;;;;;12.52;8.48;;;;;;;14.98;100.00;101663.69;7387593;19;20014;-81
2024/04/13 06:48:26;;;;;;;13.38;9.18;;;;;;;14.96;100.00;101651.34;7394909;19;20696;-81
2024/04/13 06:50:51;;;;;;;13.30;9.20;;;;;;;15.03;100.00;101644.81;7392708;19;20029;-80
2024/04/13 06:53:17;;;;;;;11.07;8.70;;;;;;;14.92;100.00;101594.63;7393204;19;20058;-79
2024/04/13 06:55:44;;;;;;;16.30;8.73;;;;;;;15.36;100.00;101623.69;7389801;19;20030;-80
2024/04/13 06:58:10;;;;;;;13.88;8.45;;;;;;;16.09;100.00;101660.22;7358991;19;20011;-79
2024/04/13 07:00:36;;;;;;;11.95;8.25;;;;;;;16.20;100.00;101576.84;7391618;19;20408;-82
2024/04/13 07:03:02;;;;;;;14.75;8.35;;;;;;;16.93;100.00;101611.28;7392332;19;20014;-79
2024/04/13 07:05:28;;;;;;;11.32;8.02;;;;;;;16.84;100.00;101575.16;7389789;19;20011;-79
2024/04/13 07:07:54;;;;;;;10.40;8.30;;;;;;;16.92;100.00;101590.81;7391264;19;20018;-78
2024/04/13 07:10:19;;;;;;;13.00;9.23;;;;;;;17.06;100.00;101588.25;7391571;19;20010;-77
2024/04/13 07:12:47;;;;;;;10.40;8.27;;;;;;;17.64;100.00;101643.06;7393181;19;20044;-79
2024/04/13 07:15:16;;;;;;;15.13;9.43;;;;;;;17.81;100.00;101626.88;7392094;19;20010;-78
2024/04/13 07:17:42;;;;;;;11.93;8.88;;;;;;;18.11;100.00;101643.00;7391001;19;20002;-78
2024/04/13 07:20:08;;;;;;;11.65;8.10;;;;;;;18.16;100.00;101584.63;7394506;19;20030;-79
2024/04/13 07:22:35;;;;;;;11.18;8.18;;;;;;;18.45;100.00;101570.31;7394865;19;20013;-79
2024/04/13 07:25:00;;;;;;;11.27;8.32;;;;;;;18.64;100.00;101569.22;7396678;19;20006;-79
2024/04/13 07:27:26;;;;;;;13.65;8.77;;;;;;;18.75;100.00;101572.97;7387270;19;20006;-80
2024/04/13 07:29:51;;;;;;;12.55;8.27;;;;;;;18.48;100.00;101551.34;7369393;19;20003;-81
2024/04/13 07:32:17;;;;;;;9.85;7.40;;;;;;;18.51;100.00;101618.25;7389694;19;20006;-79
2024/04/13 07:34:44;;;;;;;11.23;7.28;;;;;;;18.53;100.00;101626.19;7389845;19;20381;-79
2024/04/13 07:37:10;;;;;;;11.55;7.00;;;;;;;18.73;100.00;101622.34;7385059;19;20418;-77
2024/04/13 07:39:35;;;;;;;9.65;7.55;;;;;;;18.85;100.00;101616.19;7389100;19;20090;-79
2024/04/13 07:42:02;;;;;;;10.10;7.07;;;;;;;18.78;100.00;101580.81;7396054;19;20002;-82
2024/04/13 07:44:28;;;;;;;10.73;6.55;;;;;;;18.90;100.00;101585.41;7396989;19;20006;-78
2024/04/13 07:46:53;;;;;;;9.70;6.85;;;;;;;18.73;100.00;101563.31;7392467;19;20010;-80
2024/04/13 07:49:20;;;;;;;9.23;6.85;;;;;;;17.95;100.00;101462.59;7399254;19;20014;-78
2024/04/13 07:51:46;;;;;;;9.38;7.18;;;;;;;18.89;100.00;101598.94;7396304;19;20014;-78
2024/04/13 07:54:12;;;;;;;9.00;6.90;;;;;;;18.96;100.00;101618.22;7392426;19;20050;-79
2024/04/13 07:56:37;;;;;;;8.02;6.70;;;;;;;18.96;100.00;101607.47;7388940;19;20363;-79
2024/04/13 07:59:03;;;;;;;9.30;5.63;;;;;;;19.41;100.00;101625.16;7391632;19;20471;-78
2024/04/13 08:01:28;;;;;;;9.88;6.63;;;;;;;19.73;96.01;101607.84;7391805;19;20482;-79
2024/04/13 08:03:54;;;;;;;8.98;5.78;;;;;;;20.00;94.15;101606.97;7374745;19;20010;-79
2024/04/13 08:06:20;;;;;;;9.15;5.38;;;;;;;19.87;91.95;101561.22;7390515;19;20010;-79
2024/04/13 08:08:45;;;;;;;9.50;6.22;;;;;;;20.17;90.27;101591.41;7393263;19;20011;-78
2024/04/13 08:11:12;;;;;;;9.82;6.25;;;;;;;20.19;91.03;101591.31;7396442;19;20018;-80
2024/04/13 08:13:38;;;;;;;10.77;6.65;;;;;;;19.55;91.87;101533.81;7401515;19;20021;-79
2024/04/13 08:16:06;;;;;;;10.82;6.22;;;;;;;19.62;91.61;101540.53;7395894;19;20094;-80
2024/04/13 08:18:32;;;;;;;6.55;5.75;;;;;;;20.20;91.29;101606.47;7398167;19;20046;-79
2024/04/13 08:20:59;;;;;;;9.43;5.82;;;;;;;20.22;87.81;101585.72;7398018;19;20100;-79
2024/04/13 08:23:28;;;;;;;10.00;6.22;;;;;;;19.50;92.78;101566.38;7412742;19;19999;-80
2024/04/13 08:26:01;;;;;;;7.78;5.90;;;;;;;19.20;98.92;101601.41;7404031;19;20010;-79
2024/04/13 08:28:26;;;;;;;10.18;5.80;;;;;;;18.83;100.00;101565.31;7407666;19;20007;-79
2024/04/13 08:30:52;;;;;;;9.25;5.13;;;;;;;18.95;100.00;101582.44;7400992;19;20058;-79
2024/04/13 08:33:17;;;;;;;8.23;5.03;;;;;;;19.00;100.00;101583.03;7380612;19;20034;-79
2024/04/13 08:35:43;;;;;;;8.30;5.30;;;;;;;18.90;100.00;101545.16;7405267;19;20104;-77
2024/04/13 08:38:09;;;;;;;5.00;4.38;;;;;;;19.14;100.00;101564.22;7406946;19;20014;-79
2024/04/13 08:40:38;;;;;;;7.22;4.80;;;;;;;19.25;99.36;101529.47;7403532;19;20018;-78
2024/04/13 08:43:04;;;;;;;8.13;5.67;;;;;;;19.42;96.42;101533.72;7401754;19;20013;-80
2024/04/13 08:45:31;;;;;;;6.97;5.10;;;;;;;19.15;97.13;101522.13;7396365;19;20015;-78
2024/04/13 08:47:59;;;;;;;8.75;5.18;;;;;;;18.97;99.18;101528.66;7393239;19;20010;-78
2024/04/13 08:50:25;;;;;;;7.95;4.78;;;;;;;19.21;100.00;101564.66;7395476;19;20033;-79
2024/04/13 08:52:54;;;;;;;9.00;5.85;;;;;;;19.57;98.34;101572.19;7397410;19;20007;-79
2024/04/13 08:55:24;;;;;;;9.23;5.60;;;;;;;19.37;98.75;101549.28;7395507;19;20007;-80
2024/04/13 08:57:50;;;;;;;8.23;5.07;;;;;;;19.50;99.23;101557.47;7389424;19;20010;-79
2024/04/13 09:00:19;;;;;;;6.43;4.97;;;;;;;19.95;97.99;101573.19;7393309;19;20022;-78
2024/04/13 09:02:45;;;;;;;8.50;5.07;;;;;;;20.17;94.83;101551.06;7394946;19;20018;-79
2024/04/13 09:05:12;;;;;;;9.30;5.32;;;;;;;20.38;90.49;101559.53;7394053;19;20046;-78
2024/04/13 09:07:38;;;;;;;7.10;5.30;;;;;;;20.15;91.00;101527.94;7391805;19;20015;-79
2024/04/13 09:10:05;;;;;;;6.20;4.60;;;;;;;20.50;86.76;101538.97;7399916;19;20142;-81
2024/04/13 09:12:31;;;;;;;7.07;5.28;;;;;;;20.74;85.57;101566.00;7394487;19;20007;-81
2024/04/13 09:14:57;;;;;;;6.90;4.65;;;;;;;20.29;84.97;101487.50;7399342;19;20022;-79
2024/04/13 09:17:24;;;;;;;7.03;4.35;;;;;;;20.77;82.86;101555.88;7399755;19;20474;-80
2024/04/13 09:20:09;;;;;;;8.85;5.07;;;;;;;20.68;83.53;101559.19;7405508;19;20015;-80
2024/04/13 09:22:36;;;;;;;7.25;4.63;;;;;;;20.38;84.36;101500.34;7406249;19;20489;-80
2024/04/13 09:25:03;;;;;;;6.95;4.60;;;;;;;20.88;85.04;101557.78;7405325;19;20009;-80
2024/04/13 09:27:30;;;;;;;6.82;4.50;;;;;;;20.66;83.41;101499.22;7400415;19;20018;-78
2024/04/13 09:30:09;;;;;;;6.20;4.75;;;;;;;20.89;82.54;101544.22;7382026;19;20034;-80
2024/04/13 09:32:35;;;;;;;7.18;4.32;;;;;;;21.12;82.44;101569.47;7404271;19;20024;-79
2024/04/13 09:35:10;;;;;;;5.47;4.30;;;;;;;21.19;80.15;101560.03;7403493;19;20107;-79
2024/04/13 09:37:37;;;;;;;6.45;4.60;;;;;;;21.20;78.54;101542.88;7398157;19;20030;-80
2024/04/13 09:40:03;;;;;;;7.53;4.45;;;;;;;21.33;78.76;101550.91;7396766;19;20010;-80
2024/04/13 09:42:29;;;;;;;6.90;4.68;;;;;;;20.67;80.57;101492.88;7397160;19;20035;-79
2024/04/13 09:45:09;;;;;;;5.70;4.15;;;;;;;20.54;83.76;101538.66;7397054;19;20023;-80
2024/04/13 09:47:35;;;;;;;5.22;4.00;;;;;;;20.56;84.46;101530.47;7393700;19;20015;-79
2024/04/13 09:50:04;;;;;;;5.15;3.42;;;;;;;20.88;85.50;101542.50;7398160;19;20018;-79
2024/04/13 09:52:34;;;;;;;6.13;3.90;;;;;;;20.95;81.27;101511.44;7416231;19;20019;-78
2024/04/13 09:55:00;;;;;;;6.55;4.05;;;;;;;21.23;78.35;101537.28;7403371;19;20010;-81
2024/04/13 09:57:26;;;;;;;6.78;3.83;;;;;;;20.99;78.63;101530.94;7393593;19;20022;-80
2024/04/13 09:59:53;;;;;;;6.03;4.18;;;;;;;21.06;80.45;101534.91;7399389;19;20010;-79
2024/04/13 10:02:20;;;;;;;5.13;4.53;;;;;;;20.71;80.72;101459.41;7397479;19;20035;-79
2024/04/13 10:04:47;;;;;;;6.50;4.20;;;;;;;21.30;80.47;101516.13;7397959;19;20010;-81
2024/04/13 10:07:15;;;;;;;6.68;4.05;;;;;;;21.67;79.04;101527.72;7397427;19;20011;-79
2024/04/13 10:09:44;;;;;;;5.88;4.40;;;;;;;21.55;75.19;101509.78;7398892;19;20006;-79
2024/04/13 10:12:22;;;;;;;7.90;4.07;;;;;;;21.59;76.11;101505.84;7397698;19;20018;-80
2024/04/13 10:14:51;;;;;;;7.95;4.38;;;;;;;21.87;75.27;101518.13;7402404;19;20030;-80
2024/04/13 10:17:20;;;;;;;9.77;4.97;;;;;;;21.73;73.25;101470.59;7395732;19;20003;-78
2024/04/13 10:19:47;;;;;;;9.18;6.05;;;;;;;22.06;70.57;101502.25;7375730;19;20011;-79
2024/04/13 10:22:12;;;;;;;8.13;5.25;;;;;;;22.10;69.92;101497.47;7373435;19;20010;-78
2024/04/13 10:24:44;;;;;;;6.90;4.88;;;;;;;21.64;73.72;101492.88;7393551;19;20025;-79
2024/04/13 10:27:13;;;;;;;9.30;4.72;;;;;;;21.71;72.93;101513.03;7387589;19;20002;-81
2024/04/13 10:29:46;;;;;;;5.50;4.10;;;;;;;21.54;72.89;101510.75;7393250;19;20054;-81
2024/04/13 10:32:16;;;;;;;5.88;4.22;;;;;;;21.24;74.84;101495.91;7395433;19;20463;-80
2024/04/13 10:34:42;;;;;;;8.32;4.07;;;;;;;21.29;77.41;101495.53;7392317;19;20014;-80
2024/04/13 10:37:32;;;;;;;8.07;4.00;;;;;;;21.64;74.59;101500.97;7388669;19;20035;-79
2024/04/13 10:40:00;;;;;;;8.00;4.40;;;;;;;21.64;74.99;101498.28;7394418;19;20014;-79
2024/04/13 10:42:37;;;;;;;7.50;4.30;;;;;;;21.65;75.58;101490.09;7393097;19;20010;-81
2024/04/13 10:45:17;;;;;;;4.68;3.50;;;;;;;21.87;76.16;101493.84;7394456;19;20483;-79
2024/04/13 10:47:44;;;;;;;11.27;4.45;;;;;;;22.05;73.37;101460.91;7371841;19;20020;-79
2024/04/13 10:50:17;;;;;;;8.13;4.18;;;;;;;22.12;71.17;101461.31;7390887;19;20017;-80
2024/04/13 10:52:44;;;;;;;8.43;3.83;;;;;;;22.11;70.46;101474.91;7393178;19;20011;-79
2024/04/13 10:55:18;;;;;;;10.38;4.72;;;;;;;21.92;71.64;101481.69;7396630;19;20018;-80
2024/04/13 10:57:49;;;;;;;7.45;4.50;;;;;;;21.98;71.58;101475.84;7391401;19;20014;-77
2024/04/13 11:00:15;;;;;;;6.90;4.00;;;;;;;22.17;71.33;101478.00;7393768;19;20014;-80
2024/04/13 11:02:41;;;;;;;6.38;4.20;;;;;;;21.77;70.90;101461.31;7392084;19;20024;-80
2024/04/13 11:05:07;;;;;;;7.80;4.03;;;;;;;21.73;72.46;101478.69;7368957;19;20074;-83
2024/04/13 11:07:34;;;;;;;8.38;4.05;;;;;;;21.89;71.78;101464.91;7390099;19;20021;-81
2024/04/13 11:10:02;;;;;;;7.95;4.50;;;;;;;21.68;70.80;101408.97;7374068;19;20019;-79
2024/04/13 11:12:29;;;;;;;8.32;3.95;;;;;;;22.30;68.15;101459.88;7393003;19;20010;-78
2024/04/13 11:14:55;;;;;;;5.32;3.50;;;;;;;22.55;65.22;101464.16;7392663;19;20017;-79
2024/04/13 11:17:22;;;;;;;8.55;3.70;;;;;;;22.47;65.51;101411.78;7391777;19;20014;-83